Time;durP1;ratioP1;P1;durP2;ratioP2;P2;SDS_P1;SDS_P2;PMS_P1;PMS_P2;Temp;Humidity;BMP_temperature;BMP_pressure;BME280_temperature;BME280_humidity;BME280_pressure;Samples;Min_cycle;Max_cycle;Signal;HPM_P1;HPM_P2
2022/12/01 00:00:22;;;;;;;34.55;24.77;;;7.70;99.90;;;;;;4857440;29;20446;-65
2022/12/01 00:02:49;;;;;;;37.78;27.88;;;7.70;99.90;;;;;;4846449;29;20042;-65
2022/12/01 00:05:16;;;;;;;37.08;27.02;;;7.70;99.90;;;;;;4850238;29;20049;-64
2022/12/01 00:07:43;;;;;;;38.95;27.85;;;7.70;99.90;;;;;;4857012;29;20500;-66
2022/12/01 00:10:25;;;;;;;36.50;26.73;;;7.80;99.90;;;;;;4850433;29;20108;-66
2022/12/01 00:12:52;;;;;;;35.30;26.83;;;7.80;99.90;;;;;;4854053;29;20052;-66
2022/12/01 00:15:18;;;;;;;36.88;26.70;;;7.80;99.90;;;;;;4857180;29;20566;-68
2022/12/01 00:17:46;;;;;;;39.72;29.98;;;7.80;99.90;;;;;;4847433;29;20050;-66
2022/12/01 00:20:13;;;;;;;44.28;29.88;;;7.80;99.90;;;;;;4843346;29;20103;-66
2022/12/01 00:22:39;;;;;;;40.65;27.35;;;7.80;99.90;;;;;;4841135;29;20467;-64
2022/12/01 00:25:06;;;;;;;40.53;28.77;;;7.80;99.90;;;;;;4854654;29;20049;-66
2022/12/01 00:27:33;;;;;;;40.75;28.63;;;7.80;99.90;;;;;;4849033;29;20482;-66
2022/12/01 00:30:00;;;;;;;35.00;26.27;;;7.90;99.90;;;;;;4861370;29;20065;-64
2022/12/01 00:32:26;;;;;;;39.95;29.40;;;7.90;99.90;;;;;;4854102;29;20053;-64
2022/12/01 00:34:53;;;;;;;40.03;27.55;;;7.90;99.90;;;;;;4849609;29;20045;-65
2022/12/01 00:37:20;;;;;;;43.10;28.33;;;7.90;99.90;;;;;;4861181;29;20129;-68
2022/12/01 00:39:47;;;;;;;42.97;28.73;;;7.90;99.90;;;;;;4861327;29;20101;-65
2022/12/01 00:42:14;;;;;;;39.83;27.50;;;7.90;99.90;;;;;;4861119;29;20405;-65
2022/12/01 00:44:41;;;;;;;42.78;27.17;;;7.90;99.90;;;;;;4858280;29;20396;-66
2022/12/01 00:47:08;;;;;;;40.78;27.50;;;7.90;99.90;;;;;;4856217;29;20106;-65
2022/12/01 00:49:34;;;;;;;40.58;27.27;;;7.90;99.90;;;;;;4843323;29;20432;-67
2022/12/01 00:52:01;;;;;;;40.10;28.35;;;7.90;99.90;;;;;;4844644;29;20106;-67
2022/12/01 00:54:30;;;;;;;41.92;28.73;;;7.90;99.90;;;;;;4855058;29;20383;-67
2022/12/01 00:56:58;;;;;;;37.85;27.88;;;7.90;99.90;;;;;;4856789;29;20049;-65
2022/12/01 00:59:24;;;;;;;40.25;28.23;;;7.90;99.90;;;;;;4856797;29;20068;-65
2022/12/01 01:01:51;;;;;;;36.33;25.95;;;7.90;99.90;;;;;;4850067;29;20117;-65
2022/12/01 01:04:18;;;;;;;33.75;26.38;;;8.00;99.90;;;;;;4844357;29;20077;-68
2022/12/01 01:06:45;;;;;;;44.63;31.80;;;7.90;99.90;;;;;;4851121;29;20064;-68
2022/12/01 01:09:11;;;;;;;42.90;29.92;;;8.00;99.90;;;;;;4858408;29;20064;-68
2022/12/01 01:11:38;;;;;;;36.47;26.80;;;8.00;99.90;;;;;;4858493;29;20356;-68
2022/12/01 01:14:05;;;;;;;36.75;26.90;;;8.00;99.90;;;;;;4855114;29;20121;-66
2022/12/01 01:16:31;;;;;;;38.85;28.80;;;8.00;99.90;;;;;;4846422;29;20074;-69
2022/12/01 01:18:58;;;;;;;40.70;27.92;;;7.90;99.90;;;;;;4845339;29;20124;-67
2022/12/01 01:21:25;;;;;;;43.20;28.30;;;7.90;99.90;;;;;;4851591;29;20427;-67
2022/12/01 01:23:52;;;;;;;39.33;28.83;;;7.90;99.90;;;;;;4847245;29;20128;-70
2022/12/01 01:26:18;;;;;;;41.00;30.42;;;7.90;99.90;;;;;;4863647;29;20129;-71
2022/12/01 01:28:45;;;;;;;39.47;27.35;;;7.90;99.90;;;;;;4856006;29;20066;-66
2022/12/01 01:31:12;;;;;;;38.83;28.23;;;7.80;99.90;;;;;;4849737;29;20503;-69
2022/12/01 01:33:39;;;;;;;38.15;27.60;;;7.80;99.90;;;;;;4856124;29;20362;-66
2022/12/01 01:36:05;;;;;;;40.75;27.40;;;7.80;99.90;;;;;;4846157;29;20099;-69
2022/12/01 01:38:32;;;;;;;41.33;28.75;;;7.70;99.90;;;;;;4852726;29;20087;-67
2022/12/01 01:40:59;;;;;;;42.30;28.80;;;7.70;99.90;;;;;;4847220;29;20238;-65
2022/12/01 01:43:25;;;;;;;50.10;28.83;;;7.60;99.90;;;;;;4855368;29;20050;-67
2022/12/01 01:45:52;;;;;;;41.03;28.77;;;7.60;99.90;;;;;;4845801;29;20046;-68
2022/12/01 01:48:19;;;;;;;40.63;28.48;;;7.50;99.90;;;;;;4856965;29;20546;-68
2022/12/01 01:50:46;;;;;;;38.50;27.85;;;7.50;99.90;;;;;;4863360;29;20041;-68
2022/12/01 01:53:12;;;;;;;44.03;29.70;;;7.50;99.90;;;;;;4863311;29;20050;-68
2022/12/01 01:55:39;;;;;;;41.95;27.85;;;7.40;99.90;;;;;;4864395;29;20041;-66
2022/12/01 01:58:06;;;;;;;38.60;28.48;;;7.50;99.90;;;;;;4863186;29;20190;-65
2022/12/01 02:00:32;;;;;;;37.35;27.17;;;7.40;99.90;;;;;;4853691;29;20087;-67
2022/12/01 02:02:59;;;;;;;40.78;28.42;;;7.40;99.90;;;;;;4845442;29;20050;-68
2022/12/01 02:05:26;;;;;;;37.53;26.35;;;7.40;99.90;;;;;;4845581;29;20451;-67
2022/12/01 02:07:53;;;;;;;37.60;26.98;;;7.40;99.90;;;;;;4846057;29;20049;-69
2022/12/01 02:10:23;;;;;;;41.67;27.90;;;7.40;99.90;;;;;;4851040;29;20057;-66
2022/12/01 02:12:50;;;;;;;39.58;26.75;;;7.40;99.90;;;;;;4852899;29;20041;-67
2022/12/01 02:15:16;;;;;;;37.33;27.48;;;7.40;99.90;;;;;;4864090;29;20045;-67
2022/12/01 02:17:43;;;;;;;41.42;26.13;;;7.40;99.90;;;;;;4852586;29;20125;-68
2022/12/01 02:20:10;;;;;;;38.08;26.05;;;7.30;99.90;;;;;;4856535;29;20529;-66
2022/12/01 02:22:36;;;;;;;36.97;27.52;;;7.30;99.90;;;;;;4861310;29;20161;-66
2022/12/01 02:25:03;;;;;;;39.38;27.40;;;7.30;99.90;;;;;;4861672;29;20122;-67
2022/12/01 02:27:30;;;;;;;39.83;27.90;;;7.30;99.90;;;;;;4860984;29;20049;-68
2022/12/01 02:29:57;;;;;;;41.03;28.33;;;7.30;99.90;;;;;;4855757;29;20066;-64
2022/12/01 02:32:23;;;;;;;39.45;27.67;;;7.30;99.90;;;;;;4863568;29;20124;-67
2022/12/01 02:34:50;;;;;;;36.80;26.23;;;7.20;99.90;;;;;;4863706;29;20053;-66
2022/12/01 02:37:17;;;;;;;39.70;26.13;;;7.10;99.90;;;;;;4862436;29;20504;-66
2022/12/01 02:39:44;;;;;;;36.67;24.75;;;7.10;99.90;;;;;;4862070;29;20397;-67
2022/12/01 02:42:47;;;;;;;36.38;25.23;;;7.10;99.90;;;;;;4854664;29;20065;-66
2022/12/01 02:44:57;;;;;;;36.45;25.33;;;7.10;99.90;;;;;;4852646;29;20104;-66
2022/12/01 02:47:24;;;;;;;36.08;24.40;;;7.10;99.90;;;;;;4845043;29;20081;-67
2022/12/01 02:49:51;;;;;;;36.67;24.13;;;7.20;99.90;;;;;;4852215;29;20086;-66
2022/12/01 02:52:17;;;;;;;33.22;23.88;;;7.20;99.90;;;;;;4844782;29;20551;-68
2022/12/01 02:54:44;;;;;;;33.15;23.50;;;7.20;99.90;;;;;;4845465;29;20042;-69
2022/12/01 02:57:11;;;;;;;37.90;24.88;;;7.30;99.90;;;;;;4844936;29;20046;-67
2022/12/01 02:59:38;;;;;;;34.25;23.63;;;7.30;99.90;;;;;;4844802;29;20553;-68
2022/12/01 03:02:04;;;;;;;32.88;22.55;;;7.30;99.90;;;;;;4851697;29;20056;-66
2022/12/01 03:04:31;;;;;;;33.00;23.88;;;7.30;99.90;;;;;;4863239;29;20419;-66
2022/12/01 03:06:58;;;;;;;34.33;24.33;;;7.30;99.90;;;;;;4851924;29;20132;-67
2022/12/01 03:09:26;;;;;;;30.85;21.85;;;7.30;99.90;;;;;;4855072;29;20045;-68
2022/12/01 03:11:53;;;;;;;35.10;24.55;;;7.30;99.90;;;;;;4861975;29;20411;-65
2022/12/01 03:14:19;;;;;;;33.92;23.20;;;7.30;99.90;;;;;;4862496;29;20124;-65
2022/12/01 03:16:46;;;;;;;32.25;23.17;;;7.30;99.90;;;;;;4853871;29;20050;-67
2022/12/01 03:19:13;;;;;;;32.50;23.02;;;7.40;99.90;;;;;;4855259;29;20103;-68
2022/12/01 03:21:40;;;;;;;33.22;23.10;;;7.40;99.90;;;;;;4846373;29;20102;-67
2022/12/01 03:24:07;;;;;;;31.45;23.15;;;7.30;99.90;;;;;;4843769;29;20121;-68
2022/12/01 03:26:34;;;;;;;32.42;23.27;;;7.40;99.90;;;;;;4848037;29;20042;-67
2022/12/01 03:29:01;;;;;;;31.98;22.98;;;7.40;99.90;;;;;;4845198;29;20050;-65
2022/12/01 03:31:27;;;;;;;34.75;23.90;;;7.40;99.90;;;;;;4843976;29;20045;-66
2022/12/01 03:33:54;;;;;;;33.85;24.30;;;7.40;99.90;;;;;;4844088;29;20041;-67
2022/12/01 03:36:21;;;;;;;33.00;23.13;;;7.40;99.90;;;;;;4850547;29;20450;-66
2022/12/01 03:38:48;;;;;;;32.97;24.25;;;7.40;99.90;;;;;;4862809;29;20109;-67
2022/12/01 03:41:14;;;;;;;33.22;23.08;;;7.40;99.90;;;;;;4857341;29;20068;-65
2022/12/01 03:43:41;;;;;;;31.65;23.48;;;7.40;99.90;;;;;;4844130;29;20057;-65
2022/12/01 03:46:08;;;;;;;36.92;22.92;;;7.40;99.90;;;;;;4847861;29;20073;-66
2022/12/01 03:48:35;;;;;;;34.38;22.90;;;7.40;99.90;;;;;;4843961;29;20046;-67
2022/12/01 03:51:02;;;;;;;30.92;22.77;;;7.40;99.90;;;;;;4843787;29;20050;-70
2022/12/01 03:53:28;;;;;;;32.75;23.95;;;7.40;99.90;;;;;;4844196;29;20049;-68
2022/12/01 03:55:55;;;;;;;32.67;22.77;;;7.40;99.90;;;;;;4845994;29;20127;-69
2022/12/01 03:58:22;;;;;;;31.35;23.30;;;7.40;99.90;;;;;;4861567;29;20093;-66
2022/12/01 04:00:52;;;;;;;30.50;22.90;;;7.40;99.90;;;;;;4860246;29;20463;-67
2022/12/01 04:03:18;;;;;;;32.75;22.70;;;7.40;99.90;;;;;;4861764;29;20037;-66
2022/12/01 04:05:45;;;;;;;28.92;22.42;;;7.40;99.90;;;;;;4861573;29;20041;-68
2022/12/01 04:08:12;;;;;;;32.25;23.02;;;7.40;99.90;;;;;;4846566;29;20077;-69
2022/12/01 04:10:39;;;;;;;36.13;23.70;;;7.40;99.90;;;;;;4844069;29;20141;-68
2022/12/01 04:13:10;;;;;;;32.00;23.10;;;7.40;99.90;;;;;;4843181;29;20046;-65
2022/12/01 04:15:37;;;;;;;32.65;23.27;;;7.40;99.90;;;;;;4843377;29;20136;-67
2022/12/01 04:18:04;;;;;;;30.25;22.17;;;7.40;99.90;;;;;;4860578;29;20053;-68
2022/12/01 04:20:31;;;;;;;31.38;22.45;;;7.40;99.90;;;;;;4859751;29;20497;-65
2022/12/01 04:22:57;;;;;;;29.73;21.40;;;7.40;99.90;;;;;;4843092;29;20038;-67
2022/12/01 04:25:24;;;;;;;29.90;21.90;;;7.40;99.90;;;;;;4854382;29;20053;-65
2022/12/01 04:27:51;;;;;;;29.55;21.10;;;7.40;99.90;;;;;;4853923;29;20037;-68
2022/12/01 04:30:17;;;;;;;29.80;20.52;;;7.40;99.90;;;;;;4849011;29;20073;-66
2022/12/01 04:32:44;;;;;;;31.95;22.70;;;7.40;99.90;;;;;;4861958;29;20537;-66
2022/12/01 04:35:11;;;;;;;30.33;20.90;;;7.40;99.90;;;;;;4861744;29;20073;-65
2022/12/01 04:37:37;;;;;;;26.33;20.42;;;7.40;99.90;;;;;;4846204;29;20050;-64
2022/12/01 04:40:04;;;;;;;30.50;21.67;;;7.40;99.90;;;;;;4843195;29;20474;-67
2022/12/01 04:42:31;;;;;;;28.05;21.10;;;7.40;99.90;;;;;;4842975;29;20046;-67
2022/12/01 04:44:58;;;;;;;27.60;21.45;;;7.40;99.90;;;;;;4855906;29;20120;-67
2022/12/01 04:47:24;;;;;;;32.75;21.60;;;7.40;99.90;;;;;;4854718;29;20106;-67
2022/12/01 04:49:51;;;;;;;30.85;20.05;;;7.40;99.90;;;;;;4852904;29;20069;-68
2022/12/01 04:52:18;;;;;;;28.20;20.40;;;7.40;99.90;;;;;;4846895;29;20037;-66
2022/12/01 04:54:44;;;;;;;28.30;19.50;;;7.40;99.90;;;;;;4860420;29;20045;-68
2022/12/01 04:57:11;;;;;;;26.33;19.20;;;7.40;99.90;;;;;;4853662;29;20053;-66
2022/12/01 04:59:38;;;;;;;29.02;19.63;;;7.30;99.90;;;;;;4853550;29;20057;-67
2022/12/01 05:02:05;;;;;;;26.08;18.42;;;7.30;99.90;;;;;;4850747;29;20054;-66
2022/12/01 05:04:33;;;;;;;28.58;20.27;;;7.30;99.90;;;;;;4859252;29;20042;-67
2022/12/01 05:06:59;;;;;;;24.70;19.00;;;7.20;99.90;;;;;;4847748;29;20431;-68
2022/12/01 05:09:26;;;;;;;28.13;19.65;;;7.20;99.90;;;;;;4842850;29;20042;-68
2022/12/01 05:11:53;;;;;;;30.77;20.52;;;7.20;99.90;;;;;;4859026;29;20102;-66
2022/12/01 05:14:19;;;;;;;26.85;20.23;;;7.20;99.90;;;;;;4861157;29;20056;-68
2022/12/01 05:16:46;;;;;;;25.83;19.08;;;7.20;99.90;;;;;;4853393;29;20050;-68
2022/12/01 05:21:58;;;;;;;28.00;20.10;;;7.20;99.90;;;;;;4857723;29;20037;-65
2022/12/01 05:24:25;;;;;;;25.83;19.10;;;7.10;99.90;;;;;;4849207;29;20033;-66
2022/12/01 05:26:52;;;;;;;27.30;19.98;;;7.10;99.90;;;;;;4843017;29;20050;-67
2022/12/01 05:29:18;;;;;;;24.08;18.02;;;7.10;99.90;;;;;;4852329;29;20053;-69
2022/12/01 05:31:45;;;;;;;25.77;18.33;;;7.10;99.90;;;;;;4859973;29;20049;-67
2022/12/01 05:34:12;;;;;;;24.80;17.75;;;7.10;99.90;;;;;;4854533;29;20049;-68
2022/12/01 05:36:39;;;;;;;23.13;17.08;;;7.20;99.90;;;;;;4861000;29;20050;-69
2022/12/01 05:39:06;;;;;;;22.60;16.83;;;7.10;99.90;;;;;;4857670;29;20049;-69
2022/12/01 05:41:32;;;;;;;23.60;17.85;;;7.10;99.90;;;;;;4861166;29;20049;-69
2022/12/01 05:43:59;;;;;;;23.85;18.02;;;7.10;99.90;;;;;;4850258;29;20343;-65
2022/12/01 05:46:26;;;;;;;24.08;18.23;;;7.20;99.90;;;;;;4842225;29;20049;-68
2022/12/01 05:48:53;;;;;;;26.50;17.63;;;7.20;99.90;;;;;;4867662;29;20044;-69
2022/12/01 05:51:20;;;;;;;26.23;17.83;;;7.20;99.90;;;;;;4851002;29;20048;-67
2022/12/01 05:53:46;;;;;;;24.73;17.73;;;7.20;99.90;;;;;;4844109;29;20133;-65
2022/12/01 05:56:13;;;;;;;23.77;16.08;;;7.10;99.90;;;;;;4845830;29;20107;-67
2022/12/01 05:58:40;;;;;;;24.95;17.08;;;7.10;99.90;;;;;;4849909;29;20097;-66
2022/12/01 06:01:06;;;;;;;20.85;16.02;;;7.00;99.90;;;;;;4861181;29;20137;-68
2022/12/01 06:03:33;;;;;;;20.15;14.57;;;7.00;99.90;;;;;;4860642;29;20046;-66
2022/12/01 06:06:00;;;;;;;24.17;16.00;;;7.00;99.90;;;;;;4862587;29;20070;-66
2022/12/01 06:08:27;;;;;;;23.98;15.30;;;7.00;99.90;;;;;;4845795;29;20094;-67
2022/12/01 06:10:53;;;;;;;20.30;14.85;;;6.90;99.90;;;;;;4845379;29;20056;-67
2022/12/01 06:13:20;;;;;;;21.15;14.63;;;7.00;99.90;;;;;;4854847;29;20144;-67
2022/12/01 06:15:47;;;;;;;20.48;15.52;;;6.90;99.90;;;;;;4862645;29;20472;-66
2022/12/01 06:18:14;;;;;;;21.95;15.48;;;6.90;99.90;;;;;;4864121;29;20125;-66
2022/12/01 06:20:40;;;;;;;22.80;15.18;;;6.90;99.90;;;;;;4863049;29;20106;-66
2022/12/01 06:23:07;;;;;;;21.73;13.77;;;6.90;99.90;;;;;;4859875;29;20125;-67
2022/12/01 06:25:34;;;;;;;23.85;15.05;;;6.90;99.90;;;;;;4854649;29;20045;-67
2022/12/01 06:28:01;;;;;;;21.88;15.38;;;6.90;99.90;;;;;;4861833;29;20134;-67
2022/12/01 06:30:28;;;;;;;20.23;14.55;;;6.90;99.90;;;;;;4854960;29;20077;-67
2022/12/01 06:32:55;;;;;;;20.60;14.63;;;6.90;99.90;;;;;;4850373;29;20510;-67
2022/12/01 06:35:22;;;;;;;22.02;14.88;;;6.90;99.90;;;;;;4859412;29;20046;-67
2022/12/01 06:37:49;;;;;;;20.55;14.93;;;6.90;99.90;;;;;;4852094;29;20045;-67
2022/12/01 06:40:16;;;;;;;21.02;14.40;;;6.90;99.90;;;;;;4853972;29;20053;-68
2022/12/01 06:42:43;;;;;;;19.23;13.95;;;6.90;99.90;;;;;;4861715;29;20045;-66
2022/12/01 06:45:09;;;;;;;22.77;15.18;;;6.80;99.90;;;;;;4860512;29;20120;-67
2022/12/01 06:47:36;;;;;;;23.70;16.67;;;6.80;99.90;;;;;;4858605;29;20049;-68
2022/12/01 06:50:04;;;;;;;23.67;16.63;;;6.80;99.90;;;;;;4845311;29;20423;-69
2022/12/01 06:52:30;;;;;;;23.45;17.08;;;6.80;99.90;;;;;;4852272;29;20073;-67
2022/12/01 06:54:59;;;;;;;22.50;16.10;;;6.70;99.90;;;;;;4847794;29;20110;-68
2022/12/01 06:57:26;;;;;;;20.85;15.18;;;6.60;99.90;;;;;;4844155;29;20478;-66
2022/12/01 06:59:53;;;;;;;20.45;14.95;;;6.60;99.90;;;;;;4851729;29;20393;-66
2022/12/01 07:02:20;;;;;;;25.15;17.50;;;6.50;99.90;;;;;;4852444;29;20209;-67
2022/12/01 07:04:47;;;;;;;25.00;17.60;;;6.50;99.90;;;;;;4853449;29;20037;-65
2022/12/01 07:07:13;;;;;;;24.73;17.65;;;6.40;99.90;;;;;;4849582;29;20038;-68
2022/12/01 07:09:40;;;;;;;23.58;17.55;;;6.40;99.90;;;;;;4847820;29;20064;-67
2022/12/01 07:12:07;;;;;;;24.63;17.02;;;6.30;99.90;;;;;;4848856;29;20061;-66
2022/12/01 07:14:34;;;;;;;22.15;17.30;;;6.30;99.90;;;;;;4850918;29;20497;-66
2022/12/01 07:17:01;;;;;;;26.02;17.80;;;6.30;99.90;;;;;;4848264;29;20053;-65
2022/12/01 07:19:28;;;;;;;22.80;16.25;;;6.30;99.90;;;;;;4850443;29;20120;-69
2022/12/01 07:21:55;;;;;;;22.92;16.52;;;6.30;99.90;;;;;;4849811;29;20045;-65
2022/12/01 07:24:21;;;;;;;22.73;16.77;;;6.20;99.90;;;;;;4850498;29;20497;-66
2022/12/01 07:26:48;;;;;;;27.13;17.52;;;6.20;99.90;;;;;;4862350;29;20049;-67
2022/12/01 07:29:15;;;;;;;23.15;16.02;;;6.20;99.90;;;;;;4844828;29;20499;-65
2022/12/01 07:31:42;;;;;;;22.15;16.45;;;6.10;99.90;;;;;;4849803;29;20390;-67
2022/12/01 07:34:09;;;;;;;24.50;16.73;;;6.10;99.90;;;;;;4855557;29;20454;-65
2022/12/01 07:36:36;;;;;;;21.13;16.75;;;6.10;99.90;;;;;;4848877;29;20077;-66
2022/12/01 07:39:03;;;;;;;20.20;15.98;;;6.10;99.90;;;;;;4843583;29;20085;-68
2022/12/01 07:41:29;;;;;;;23.02;16.13;;;6.10;99.90;;;;;;4848700;29;20091;-65
2022/12/01 07:43:56;;;;;;;19.85;15.07;;;6.10;99.90;;;;;;4856619;29;20086;-66
2022/12/01 07:46:23;;;;;;;21.92;15.13;;;6.10;99.90;;;;;;4854910;29;20111;-67
2022/12/01 07:48:50;;;;;;;22.58;15.77;;;6.10;99.90;;;;;;4843761;29;20046;-67
2022/12/01 07:51:17;;;;;;;17.98;14.80;;;6.10;99.90;;;;;;4842585;29;20137;-65
2022/12/01 07:53:44;;;;;;;20.35;15.20;;;6.10;99.90;;;;;;4845573;29;20061;-66
2022/12/01 07:56:10;;;;;;;21.27;14.52;;;6.10;99.90;;;;;;4849800;29;20115;-66
2022/12/01 07:58:37;;;;;;;22.65;14.45;;;6.10;99.90;;;;;;4853727;29;20133;-64
2022/12/01 08:01:04;;;;;;;22.88;16.27;;;6.20;99.90;;;;;;4857841;29;20109;-69
2022/12/01 08:03:31;;;;;;;18.20;14.55;;;6.10;99.90;;;;;;4854240;29;20105;-65
2022/12/01 08:05:57;;;;;;;18.40;14.82;;;6.20;99.90;;;;;;4848225;29;20041;-65
2022/12/01 08:08:24;;;;;;;20.52;14.45;;;6.10;99.90;;;;;;4849988;29;20038;-67
2022/12/01 08:10:51;;;;;;;18.27;13.65;;;6.20;99.90;;;;;;4856732;29;20121;-67
2022/12/01 08:13:18;;;;;;;18.02;14.40;;;6.20;99.90;;;;;;4845570;29;20033;-64
2022/12/01 08:15:44;;;;;;;18.10;12.98;;;6.20;99.90;;;;;;4849827;29;20491;-66
2022/12/01 08:18:12;;;;;;;18.65;13.27;;;6.20;99.90;;;;;;4845462;29;20118;-64
2022/12/01 08:20:39;;;;;;;19.23;13.00;;;6.20;99.90;;;;;;4850302;29;20049;-66
2022/12/01 08:23:07;;;;;;;19.90;13.18;;;6.20;99.90;;;;;;4870697;29;20133;-69
2022/12/01 08:25:33;;;;;;;19.63;13.63;;;6.20;99.90;;;;;;4851579;29;20045;-68
2022/12/01 08:28:00;;;;;;;20.48;14.73;;;6.20;99.90;;;;;;4856975;29;20050;-66
2022/12/01 08:30:27;;;;;;;21.13;15.32;;;6.30;99.90;;;;;;4852780;29;20054;-66
2022/12/01 08:32:54;;;;;;;23.17;15.25;;;6.30;99.90;;;;;;4851524;29;20041;-64
2022/12/01 08:35:20;;;;;;;22.52;14.77;;;6.30;99.90;;;;;;4850497;29;20084;-68
2022/12/01 08:37:47;;;;;;;22.77;15.38;;;6.40;99.90;;;;;;4843365;29;20140;-69
2022/12/01 08:40:14;;;;;;;22.25;14.73;;;6.40;99.90;;;;;;4841242;29;20045;-68
2022/12/01 08:42:40;;;;;;;23.42;15.50;;;6.50;99.90;;;;;;4839901;29;20065;-66
2022/12/01 08:45:07;;;;;;;20.55;14.60;;;6.50;99.90;;;;;;4840787;29;20064;-65
2022/12/01 08:47:34;;;;;;;19.27;14.18;;;6.60;99.90;;;;;;4840826;29;20129;-66
2022/12/01 08:50:03;;;;;;;21.95;14.02;;;6.60;99.90;;;;;;4841042;29;20038;-67
2022/12/01 08:52:30;;;;;;;22.92;14.85;;;6.70;99.90;;;;;;4842257;29;20522;-68
2022/12/01 08:54:57;;;;;;;21.80;14.63;;;6.70;99.90;;;;;;4842055;29;20154;-66
2022/12/01 08:57:23;;;;;;;18.55;14.55;;;6.80;99.90;;;;;;4840930;29;20127;-65
2022/12/01 08:59:50;;;;;;;20.98;14.60;;;6.80;99.90;;;;;;4840677;29;20049;-64
2022/12/01 09:02:24;;;;;;;31.95;15.38;;;6.80;99.90;;;;;;4840365;29;20056;-65
2022/12/01 09:04:51;;;;;;;23.88;15.02;;;6.90;99.90;;;;;;4840902;29;20041;-66
2022/12/01 09:07:17;;;;;;;20.77;15.20;;;6.90;99.90;;;;;;4841144;29;20046;-64
2022/12/01 09:09:51;;;;;;;22.63;15.82;;;6.90;99.90;;;;;;4841390;29;20049;-64
2022/12/01 09:12:18;;;;;;;22.30;15.27;;;6.90;99.90;;;;;;4842020;29;20050;-64
2022/12/01 09:14:47;;;;;;;20.20;15.52;;;6.90;99.90;;;;;;4841892;29;20513;-64
2022/12/01 09:17:14;;;;;;;22.70;14.15;;;7.00;99.90;;;;;;4842667;29;20102;-66
2022/12/01 09:19:40;;;;;;;26.63;15.27;;;7.00;99.90;;;;;;4842117;29;20114;-65
2022/12/01 09:22:07;;;;;;;22.08;15.60;;;7.00;99.90;;;;;;4842014;29;20092;-65
2022/12/01 09:24:34;;;;;;;23.33;16.10;;;7.00;99.90;;;;;;4842016;29;20042;-65
2022/12/01 09:27:02;;;;;;;18.90;14.93;;;7.00;99.90;;;;;;4842636;29;20477;-64
2022/12/01 09:29:28;;;;;;;23.05;15.82;;;6.90;99.90;;;;;;4845785;29;20435;-66
2022/12/01 09:31:56;;;;;;;24.15;15.13;;;6.90;99.90;;;;;;4845478;29;20073;-65
2022/12/01 09:34:22;;;;;;;24.08;15.38;;;6.90;99.90;;;;;;4845634;29;20042;-66
2022/12/01 09:36:49;;;;;;;22.38;15.52;;;6.90;99.90;;;;;;4846714;29;20099;-67
2022/12/01 09:39:16;;;;;;;21.05;14.45;;;6.90;99.90;;;;;;4859763;29;20085;-66
2022/12/01 09:41:42;;;;;;;22.98;16.27;;;7.00;99.90;;;;;;4845425;29;20133;-63
2022/12/01 09:44:13;;;;;;;21.75;15.32;;;7.10;99.90;;;;;;4845305;29;20474;-66
2022/12/01 09:46:40;;;;;;;21.02;15.95;;;7.10;99.90;;;;;;4855506;29;20042;-67
2022/12/01 09:49:07;;;;;;;23.25;14.95;;;7.20;99.90;;;;;;4863520;29;20450;-69
2022/12/01 09:51:35;;;;;;;22.70;16.20;;;7.20;99.90;;;;;;4863726;29;20046;-65
2022/12/01 09:54:02;;;;;;;28.33;15.50;;;7.30;99.90;;;;;;4858815;29;20494;-64
2022/12/01 09:56:29;;;;;;;22.83;15.32;;;7.30;99.90;;;;;;4859967;29;20060;-63
2022/12/01 09:58:59;;;;;;;20.20;15.57;;;7.30;99.90;;;;;;4853442;29;20541;-66
2022/12/01 10:01:25;;;;;;;21.10;14.95;;;7.30;99.90;;;;;;4860352;29;20466;-67
2022/12/01 10:03:53;;;;;;;21.85;15.48;;;7.30;99.90;;;;;;4863676;29;20128;-66
2022/12/01 10:06:19;;;;;;;21.40;14.48;;;7.30;99.90;;;;;;4846090;29;20050;-66
2022/12/01 10:08:54;;;;;;;20.45;14.98;;;7.40;99.90;;;;;;4845179;29;20491;-66
2022/12/01 10:11:21;;;;;;;17.98;14.45;;;7.40;99.90;;;;;;4861024;29;20124;-67
2022/12/01 10:13:48;;;;;;;23.05;15.13;;;7.40;99.90;;;;;;4863114;29;20065;-65
2022/12/01 10:16:14;;;;;;;21.65;14.60;;;7.40;99.90;;;;;;4863639;29;20050;-65
2022/12/01 10:18:41;;;;;;;21.92;15.20;;;7.40;99.90;;;;;;4863480;29;20482;-66
2022/12/01 10:21:08;;;;;;;22.75;15.55;;;7.40;99.90;;;;;;4863296;29;20487;-67
2022/12/01 10:23:35;;;;;;;21.38;16.10;;;7.40;99.90;;;;;;4863343;29;20193;-66
2022/12/01 10:26:02;;;;;;;22.08;16.30;;;7.50;99.90;;;;;;4863076;29;20498;-65
2022/12/01 10:28:29;;;;;;;20.20;15.90;;;7.50;99.90;;;;;;4863387;29;20093;-65
2022/12/01 10:30:56;;;;;;;20.70;16.38;;;7.60;99.90;;;;;;4863098;29;20049;-64
2022/12/01 10:33:23;;;;;;;20.00;15.40;;;7.60;99.90;;;;;;4863356;29;20073;-65
2022/12/01 10:35:50;;;;;;;21.45;14.52;;;7.70;99.90;;;;;;4862818;29;20049;-66
2022/12/01 10:38:16;;;;;;;21.00;14.57;;;7.80;99.90;;;;;;4862947;29;20402;-65
2022/12/01 10:40:43;;;;;;;20.33;14.45;;;7.80;99.90;;;;;;4862803;29;20084;-68
2022/12/01 10:43:10;;;;;;;19.48;14.38;;;7.90;99.90;;;;;;4862832;29;20080;-66
2022/12/01 10:45:37;;;;;;;23.73;15.68;;;8.00;99.90;;;;;;4862629;29;20050;-65
2022/12/01 10:48:04;;;;;;;20.42;14.85;;;8.00;99.90;;;;;;4863166;29;20413;-65
2022/12/01 10:50:30;;;;;;;21.40;14.65;;;8.10;99.90;;;;;;4862966;29;20045;-67
2022/12/01 10:52:57;;;;;;;19.00;15.13;;;8.20;99.90;;;;;;4862590;29;20057;-66
2022/12/01 10:55:25;;;;;;;17.33;13.65;;;8.20;99.90;;;;;;4862569;29;20103;-64
2022/12/01 10:57:52;;;;;;;20.27;14.32;;;8.20;99.90;;;;;;4862547;29;20056;-67
2022/12/01 11:00:18;;;;;;;21.35;14.13;;;8.20;99.90;;;;;;4862545;29;20442;-66
2022/12/01 11:03:05;;;;;;;21.10;13.05;;;8.20;99.90;;;;;;4862279;29;20087;-67
2022/12/01 11:05:32;;;;;;;22.58;13.55;;;8.20;99.90;;;;;;4861026;29;20059;-67
2022/12/01 11:07:59;;;;;;;17.02;13.13;;;8.30;99.90;;;;;;4861897;29;20446;-67
2022/12/01 11:10:26;;;;;;;18.75;13.75;;;8.30;99.90;;;;;;4862287;29;20084;-66
2022/12/01 11:12:52;;;;;;;17.55;12.60;;;8.30;99.90;;;;;;4861530;29;20450;-65
2022/12/01 11:15:19;;;;;;;21.10;12.63;;;8.30;99.90;;;;;;4862316;29;20081;-66
2022/12/01 11:17:46;;;;;;;16.55;12.57;;;8.30;99.90;;;;;;4861254;29;20059;-67
2022/12/01 11:20:13;;;;;;;16.45;12.25;;;8.30;99.90;;;;;;4862654;29;20446;-65
2022/12/01 11:22:39;;;;;;;14.50;11.23;;;8.30;99.90;;;;;;4862190;29;20049;-65
2022/12/01 11:25:06;;;;;;;15.60;12.13;;;8.40;99.90;;;;;;4861932;29;20136;-65
2022/12/01 11:27:33;;;;;;;17.98;12.30;;;8.40;99.90;;;;;;4862178;29;20087;-65
2022/12/01 11:30:01;;;;;;;17.85;12.10;;;8.40;99.90;;;;;;4861938;29;20081;-64
2022/12/01 11:32:28;;;;;;;14.60;10.60;;;8.40;99.90;;;;;;4861754;29;20409;-66
2022/12/01 11:34:55;;;;;;;12.55;10.57;;;8.50;99.90;;;;;;4860508;29;20390;-64
2022/12/01 11:37:21;;;;;;;15.85;10.07;;;8.50;99.90;;;;;;4876351;29;20057;-68
2022/12/01 11:39:48;;;;;;;14.40;10.63;;;8.50;99.90;;;;;;4862082;29;20045;-66
2022/12/01 11:42:15;;;;;;;13.55;9.82;;;8.50;99.90;;;;;;4861923;29;20480;-66
2022/12/01 11:44:42;;;;;;;16.80;10.82;;;8.50;99.90;;;;;;4861500;29;20057;-64
2022/12/01 11:47:29;;;;;;;16.98;12.60;;;8.50;99.90;;;;;;4861803;29;20120;-67
2022/12/01 11:49:56;;;;;;;16.30;9.90;;;8.60;99.90;;;;;;4861556;29;20437;-67
2022/12/01 11:52:23;;;;;;;11.63;8.50;;;8.60;99.90;;;;;;4861709;29;20490;-65
2022/12/01 11:54:49;;;;;;;11.90;9.48;;;8.60;99.90;;;;;;4862053;29;20105;-67
2022/12/01 11:57:16;;;;;;;13.50;9.55;;;8.60;99.90;;;;;;4861803;29;20053;-66
2022/12/01 11:59:59;;;;;;;12.93;7.68;;;8.70;99.90;;;;;;4862083;29;20053;-66
2022/12/01 12:02:26;;;;;;;12.27;8.10;;;8.70;99.90;;;;;;4861701;29;20049;-66
2022/12/01 12:04:54;;;;;;;11.25;8.35;;;8.80;99.90;;;;;;4861347;29;20041;-67
2022/12/01 12:07:21;;;;;;;12.23;7.93;;;8.80;99.90;;;;;;4861705;29;20562;-66
2022/12/01 12:09:47;;;;;;;13.50;9.18;;;8.90;99.90;;;;;;4861409;29;20489;-67
2022/12/01 12:12:15;;;;;;;12.65;8.65;;;8.90;99.90;;;;;;4861300;29;20045;-64
2022/12/01 12:14:41;;;;;;;10.10;7.50;;;8.90;99.90;;;;;;4860330;29;20136;-67
2022/12/01 12:17:08;;;;;;;11.52;7.45;;;8.90;99.90;;;;;;4861532;29;20041;-66
2022/12/01 12:19:35;;;;;;;9.95;7.20;;;8.90;99.90;;;;;;4860499;29;20065;-67
2022/12/01 12:22:22;;;;;;;11.13;7.20;;;8.90;99.90;;;;;;4861168;29;20081;-66
2022/12/01 12:24:48;;;;;;;14.50;8.13;;;8.90;99.90;;;;;;4861350;29;20041;-67
2022/12/01 12:27:15;;;;;;;10.40;7.55;;;8.90;99.90;;;;;;4861447;29;20068;-66
2022/12/01 12:29:42;;;;;;;13.27;8.27;;;8.90;99.90;;;;;;4861352;29;20541;-66
2022/12/01 12:32:09;;;;;;;11.95;8.27;;;9.00;99.90;;;;;;4861085;29;20041;-65
2022/12/01 12:34:35;;;;;;;14.15;8.32;;;8.90;99.90;;;;;;4861548;29;20069;-65
2022/12/01 12:37:02;;;;;;;16.35;8.95;;;9.00;99.90;;;;;;4861322;29;20052;-67
2022/12/01 12:39:29;;;;;;;11.48;8.05;;;9.00;99.90;;;;;;4861407;29;20093;-65